createdAt,value
2019-02-18T00:00:20.950Z,4.79
2019-02-18T00:01:20.844Z,4.83
2019-02-18T00:03:12.673Z,4.72
2019-02-18T00:04:12.599Z,4.72
2019-02-18T00:06:05.392Z,4.64
2019-02-18T00:07:14.041Z,4.59
2019-02-18T00:08:57.102Z,4.74
2019-02-18T00:09:57.010Z,4.64
2019-02-18T00:11:49.796Z,4.69
2019-02-18T00:12:49.708Z,4.74
2019-02-18T00:14:42.475Z,4.67
2019-02-18T00:15:42.413Z,4.56
2019-02-18T00:17:34.141Z,4.67
2019-02-18T00:18:34.073Z,4.64
2019-02-18T00:20:25.890Z,4.71
2019-02-18T00:21:25.824Z,4.57
2019-02-18T00:23:18.746Z,4.64
2019-02-18T00:24:18.524Z,4.46
2019-02-18T00:26:10.408Z,4.51
2019-02-18T00:27:10.355Z,4.34
2019-02-18T00:29:02.070Z,4.31
2019-02-18T00:30:02.000Z,4.17
2019-02-18T00:31:54.763Z,4.10
2019-02-18T00:32:54.677Z,4.08
2019-02-18T00:34:47.448Z,4.07
2019-02-18T00:35:47.384Z,4.00
2019-02-18T00:37:39.159Z,3.95
2019-02-18T00:38:39.091Z,3.84
2019-02-18T00:40:31.875Z,3.84
2019-02-18T00:41:31.812Z,3.98
2019-02-18T00:43:23.663Z,3.96
2019-02-18T00:44:23.622Z,3.88
2019-02-18T00:46:15.441Z,3.84
2019-02-18T00:47:15.267Z,3.92
2019-02-18T00:49:07.119Z,3.88
2019-02-18T00:50:07.041Z,3.93
2019-02-18T00:51:58.824Z,4.16
2019-02-18T00:52:58.736Z,4.31
2019-02-18T00:54:51.528Z,4.02
2019-02-18T00:55:51.446Z,4.07
2019-02-18T00:57:43.349Z,4.08
2019-02-18T00:58:43.794Z,4.11
2019-02-18T01:00:35.052Z,4.11
2019-02-18T01:01:34.915Z,3.96
2019-02-18T01:03:26.836Z,3.88
2019-02-18T01:04:26.769Z,3.90
2019-02-18T01:06:18.471Z,3.95
2019-02-18T01:07:18.384Z,3.84
2019-02-18T01:09:11.157Z,3.88
2019-02-18T01:10:11.092Z,3.86
2019-02-18T01:12:04.011Z,3.92
2019-02-18T01:13:03.876Z,3.82
2019-02-18T01:14:55.725Z,3.60
2019-02-18T01:15:55.665Z,3.67
2019-02-18T01:17:47.495Z,3.80
2019-02-18T01:18:47.407Z,3.70
2019-02-18T01:20:39.274Z,3.67
2019-02-18T01:21:39.137Z,3.67
2019-02-18T01:23:30.963Z,3.56
2019-02-18T01:24:30.817Z,3.56
2019-02-18T01:26:22.578Z,3.46
2019-02-18T01:27:22.490Z,3.52
2019-02-18T01:29:15.230Z,3.56
2019-02-18T01:30:15.167Z,3.50
2019-02-18T01:32:07.142Z,3.54
2019-02-18T01:33:07.007Z,3.63
2019-02-18T01:34:58.779Z,3.57
2019-02-18T01:35:58.694Z,3.67
2019-02-18T01:37:50.509Z,3.84
2019-02-18T01:38:50.429Z,3.84
2019-02-18T01:40:42.174Z,3.95
2019-02-18T01:41:42.103Z,3.90
2019-02-18T01:43:33.904Z,3.95
2019-02-18T01:44:33.783Z,3.90
2019-02-18T01:46:25.565Z,4.11
2019-02-18T01:47:25.482Z,4.08
2019-02-18T01:49:17.291Z,4.07
2019-02-18T01:50:17.208Z,3.88
2019-02-18T01:52:09.194Z,3.82
2019-02-18T01:53:09.095Z,3.74
2019-02-18T01:55:00.863Z,3.82
2019-02-18T01:56:55.777Z,3.63
2019-02-18T01:57:55.689Z,3.67
2019-02-18T01:59:47.452Z,3.78
2019-02-18T02:00:47.375Z,3.88
2019-02-18T02:02:39.151Z,3.81
2019-02-18T02:03:39.107Z,3.84
2019-02-18T02:05:30.833Z,3.81
2019-02-18T02:06:30.744Z,3.88
2019-02-18T02:08:22.494Z,3.68
2019-02-18T02:09:22.425Z,3.64
2019-02-18T02:11:14.150Z,3.82
2019-02-18T02:12:14.086Z,3.77
2019-02-18T02:14:05.965Z,3.62
2019-02-18T02:15:05.883Z,3.63
2019-02-18T02:16:57.776Z,3.46
2019-02-18T02:17:57.693Z,3.45
2019-02-18T02:19:49.640Z,3.49
2019-02-18T02:20:49.464Z,3.57
2019-02-18T02:22:41.249Z,3.63
2019-02-18T02:23:41.161Z,3.71
2019-02-18T02:25:33.996Z,3.72
2019-02-18T02:26:33.906Z,3.68
2019-02-18T02:28:25.679Z,3.74
2019-02-18T02:29:25.592Z,3.64
2019-02-18T02:31:17.349Z,3.72
2019-02-18T02:32:17.267Z,3.60
2019-02-18T02:34:09.135Z,3.63
2019-02-18T02:35:09.068Z,3.54
2019-02-18T02:37:01.887Z,3.56
2019-02-18T02:38:07.547Z,3.42
2019-02-18T02:39:53.571Z,3.22
2019-02-18T02:40:53.479Z,3.17
2019-02-18T02:42:46.268Z,3.39
2019-02-18T02:43:46.147Z,3.30
2019-02-18T02:45:37.915Z,3.46
2019-02-18T02:46:37.828Z,3.44
2019-02-18T02:48:29.566Z,3.54
2019-02-18T02:49:29.482Z,3.34
2019-02-18T02:51:21.315Z,3.23
2019-02-18T02:52:21.231Z,3.12
2019-02-18T02:54:13.020Z,2.95
2019-02-18T02:55:12.894Z,2.86
2019-02-18T02:57:05.710Z,2.80
2019-02-18T02:58:05.618Z,2.81
2019-02-18T02:59:57.356Z,2.65
2019-02-18T03:00:57.266Z,2.56
2019-02-18T03:02:49.051Z,2.50
2019-02-18T03:03:48.948Z,2.53
2019-02-18T03:05:40.730Z,2.53
2019-02-18T03:06:40.687Z,2.71
2019-02-18T03:08:33.460Z,2.65
2019-02-18T03:09:33.341Z,2.55
2019-02-18T03:11:26.181Z,2.41
2019-02-18T03:12:26.038Z,2.48
2019-02-18T03:14:18.925Z,2.48
2019-02-18T03:15:18.829Z,2.36
2019-02-18T03:17:10.631Z,2.33
2019-02-18T03:18:10.547Z,2.32
2019-02-18T03:20:02.531Z,2.36
2019-02-18T03:21:02.422Z,2.48
2019-02-18T03:22:55.222Z,2.47
2019-02-18T03:23:55.152Z,2.47
2019-02-18T03:25:48.026Z,2.37
2019-02-18T03:26:47.842Z,2.43
2019-02-18T03:28:39.572Z,2.59
2019-02-18T03:29:39.494Z,2.44
2019-02-18T03:31:32.421Z,2.43
2019-02-18T03:32:32.413Z,2.50
2019-02-18T03:34:24.033Z,2.58
2019-02-18T03:35:23.873Z,2.62
2019-02-18T03:37:16.804Z,2.80
2019-02-18T03:38:16.697Z,2.84
2019-02-18T03:40:08.450Z,2.61
2019-02-18T03:41:08.357Z,2.58
2019-02-18T03:43:01.117Z,2.56
2019-02-18T03:44:01.048Z,2.53
2019-02-18T03:45:54.016Z,2.53
2019-02-18T03:46:53.805Z,2.56
2019-02-18T03:48:45.525Z,2.51
2019-02-18T03:49:45.443Z,2.58
2019-02-18T03:51:38.231Z,2.63
2019-02-18T03:52:38.138Z,2.68
2019-02-18T03:54:31.118Z,2.87
2019-02-18T03:55:30.837Z,2.77
2019-02-18T03:57:22.748Z,2.58
2019-02-18T03:58:22.628Z,2.56
2019-02-18T04:00:15.364Z,2.58
2019-02-18T04:01:15.262Z,2.61
2019-02-18T04:03:07.259Z,2.53
2019-02-18T04:04:07.232Z,2.56
2019-02-18T04:05:58.936Z,2.33
2019-02-18T04:06:58.858Z,2.32
2019-02-18T04:08:51.699Z,2.51
2019-02-18T04:09:51.611Z,2.45
2019-02-18T04:11:44.475Z,2.48
2019-02-18T04:12:44.389Z,2.37
2019-02-18T04:14:37.094Z,2.41
2019-02-18T04:15:37.012Z,2.41
2019-02-18T04:17:29.779Z,2.44
2019-02-18T04:18:29.694Z,2.41
2019-02-18T04:20:22.518Z,2.29
2019-02-18T04:21:22.435Z,2.30
2019-02-18T04:23:15.276Z,2.14
2019-02-18T04:24:15.191Z,2.00
2019-02-18T04:26:07.946Z,1.86
2019-02-18T04:27:08.140Z,2.00
2019-02-18T04:29:00.634Z,2.36
2019-02-18T04:30:00.606Z,2.36
2019-02-18T04:31:53.347Z,2.40
2019-02-18T04:32:53.262Z,2.33
2019-02-18T04:34:46.052Z,2.05
2019-02-18T04:35:46.034Z,2.05
2019-02-18T04:37:38.827Z,1.95
2019-02-18T04:38:38.666Z,2.08
2019-02-18T04:40:31.438Z,2.05
2019-02-18T04:41:31.567Z,1.83
2019-02-18T04:43:24.188Z,1.79
2019-02-18T04:44:24.065Z,1.90
2019-02-18T04:46:16.955Z,1.98
2019-02-18T04:47:16.755Z,1.95
2019-02-18T04:49:09.598Z,1.88
2019-02-18T04:50:09.522Z,1.71
2019-02-18T04:52:01.400Z,1.67
2019-02-18T04:53:01.380Z,1.60
2019-02-18T04:54:53.190Z,1.57
2019-02-18T04:55:53.138Z,1.65
2019-02-18T04:57:45.866Z,1.49
2019-02-18T04:58:45.768Z,1.44
2019-02-18T05:00:38.557Z,1.35
2019-02-18T05:01:38.497Z,1.39
2019-02-18T05:03:31.320Z,1.38
2019-02-18T05:04:31.236Z,1.32
2019-02-18T05:06:25.558Z,1.42
2019-02-18T05:07:23.891Z,1.56
2019-02-18T05:09:15.655Z,1.60
2019-02-18T05:10:15.607Z,1.44
2019-02-18T05:12:08.363Z,1.46
2019-02-18T05:13:08.272Z,1.52
2019-02-18T05:15:01.028Z,1.49
2019-02-18T05:16:00.954Z,1.36
2019-02-18T05:17:53.812Z,1.31
2019-02-18T05:18:53.646Z,1.16
2019-02-18T05:20:46.462Z,1.28
2019-02-18T05:21:46.407Z,1.39
2019-02-18T05:23:39.289Z,1.46
2019-02-18T05:24:39.193Z,1.46
2019-02-18T05:26:31.953Z,1.57
2019-02-18T05:27:33.541Z,1.54
2019-02-18T05:29:24.745Z,1.32
2019-02-18T05:30:24.595Z,1.52
2019-02-18T05:32:17.489Z,1.44
2019-02-18T05:33:17.258Z,1.43
2019-02-18T05:35:10.134Z,1.29
2019-02-18T05:36:10.095Z,1.24
2019-02-18T05:38:02.853Z,1.14
2019-02-18T05:39:02.779Z,1.14
2019-02-18T05:40:55.505Z,1.18
2019-02-18T05:41:55.466Z,1.18
2019-02-18T05:43:48.196Z,1.17
2019-02-18T05:44:48.105Z,1.08
2019-02-18T05:46:40.921Z,1.18
2019-02-18T05:47:40.790Z,1.28
2019-02-18T05:49:33.636Z,1.14
2019-02-18T05:50:33.497Z,1.29
2019-02-18T05:52:26.356Z,1.24
2019-02-18T05:53:26.243Z,1.24
2019-02-18T05:55:19.059Z,1.25
2019-02-18T05:56:18.931Z,1.26
2019-02-18T05:58:10.747Z,1.35
2019-02-18T05:59:10.661Z,1.35
2019-02-18T06:01:03.566Z,1.42
2019-02-18T06:02:03.451Z,1.38
2019-02-18T06:03:56.412Z,1.56
2019-02-18T06:04:56.203Z,1.49
2019-02-18T06:06:48.973Z,1.34
2019-02-18T06:07:48.915Z,1.34
2019-02-18T06:09:41.650Z,1.34
2019-02-18T06:10:41.534Z,1.35
2019-02-18T06:12:33.364Z,1.31
2019-02-18T06:13:33.275Z,1.18
2019-02-18T06:15:25.257Z,1.17
2019-02-18T06:16:25.196Z,1.08
2019-02-18T06:18:18.014Z,1.07
2019-02-18T06:19:17.886Z,0.95
2019-02-18T06:21:10.792Z,1.02
2019-02-18T06:22:10.611Z,0.96
2019-02-18T06:24:02.469Z,1.24
2019-02-18T06:25:02.425Z,1.21
2019-02-18T06:26:55.157Z,1.29
2019-02-18T06:27:55.139Z,1.32
2019-02-18T06:29:47.947Z,1.25
2019-02-18T06:30:47.878Z,1.25
2019-02-18T06:32:40.692Z,1.34
2019-02-18T06:33:40.548Z,1.38
2019-02-18T06:35:32.341Z,1.34
2019-02-18T06:36:32.296Z,1.29
2019-02-18T06:38:25.047Z,1.50
2019-02-18T06:39:25.200Z,1.46
2019-02-18T06:41:17.702Z,1.43
2019-02-18T06:42:17.628Z,1.42
2019-02-18T06:44:10.471Z,1.34
2019-02-18T06:45:11.940Z,1.34
2019-02-18T06:47:02.072Z,1.52
2019-02-18T06:48:02.188Z,1.54
2019-02-18T06:49:54.022Z,1.56
2019-02-18T06:50:53.910Z,1.52
2019-02-18T06:52:46.739Z,1.77
2019-02-18T06:53:46.570Z,1.82
2019-02-18T06:55:38.373Z,1.77
2019-02-18T06:56:38.309Z,1.77
2019-02-18T06:58:30.289Z,1.98
2019-02-18T06:59:30.183Z,1.93
2019-02-18T07:01:21.997Z,1.90
2019-02-18T07:02:21.943Z,1.93
2019-02-18T07:04:13.880Z,1.81
2019-02-18T07:05:13.657Z,1.79
2019-02-18T07:07:05.616Z,2.07
2019-02-18T07:08:05.520Z,2.12
2019-02-18T07:09:57.459Z,2.12
2019-02-18T07:10:57.289Z,2.18
2019-02-18T07:12:49.225Z,2.08
2019-02-18T07:13:49.208Z,2.23
2019-02-18T07:15:41.926Z,2.29
2019-02-18T07:16:41.842Z,2.15
2019-02-18T07:18:34.662Z,2.15
2019-02-18T07:19:34.546Z,2.20
2019-02-18T07:21:26.307Z,2.33
2019-02-18T07:22:26.229Z,2.43
2019-02-18T07:24:18.179Z,2.59
2019-02-18T07:25:17.904Z,2.56
2019-02-18T07:27:10.666Z,2.65
2019-02-18T07:28:10.593Z,2.74
2019-02-18T07:30:02.355Z,2.92
2019-02-18T07:31:02.258Z,2.87
2019-02-18T07:32:54.293Z,3.08
2019-02-18T07:33:54.039Z,3.17
2019-02-18T07:35:45.890Z,3.31
2019-02-18T07:36:45.677Z,3.52
2019-02-18T07:38:37.423Z,3.86
2019-02-18T07:39:37.366Z,3.95
2019-02-18T07:41:29.174Z,4.31
2019-02-18T07:42:29.054Z,4.44
2019-02-18T07:44:21.818Z,4.83
2019-02-18T07:45:21.734Z,5.01
2019-02-18T07:47:13.566Z,5.24
2019-02-18T07:48:13.499Z,5.40
2019-02-18T07:50:06.473Z,5.77
2019-02-18T07:51:06.190Z,5.96
2019-02-18T07:52:58.971Z,6.14
2019-02-18T07:53:58.977Z,6.28
2019-02-18T07:55:51.693Z,6.58
2019-02-18T07:56:51.615Z,6.65
2019-02-18T07:58:43.436Z,6.93
2019-02-18T07:59:43.324Z,7.07
2019-02-18T08:01:36.132Z,7.32
2019-02-18T08:02:36.044Z,7.45
2019-02-18T08:04:28.875Z,7.71
2019-02-18T08:05:28.730Z,7.86
2019-02-18T08:07:21.530Z,8.06
2019-02-18T08:08:21.451Z,8.31
2019-02-18T08:10:14.247Z,8.45
2019-02-18T08:11:14.162Z,8.63
2019-02-18T08:13:05.964Z,8.91
2019-02-18T08:14:05.886Z,8.88
2019-02-18T08:15:58.682Z,8.91
2019-02-18T08:16:58.589Z,8.89
2019-02-18T08:18:51.614Z,8.83
2019-02-18T08:19:51.438Z,8.79
2019-02-18T08:21:44.133Z,8.80
2019-02-18T08:22:44.053Z,8.88
2019-02-18T08:24:36.825Z,8.83
2019-02-18T08:25:36.769Z,8.93
2019-02-18T08:27:29.525Z,9.37
2019-02-18T08:28:29.573Z,9.68
2019-02-18T08:30:22.232Z,10.02
2019-02-18T08:31:22.166Z,10.18
2019-02-18T08:33:15.077Z,10.81
2019-02-18T08:34:14.962Z,11.08
2019-02-18T08:36:07.748Z,11.46
2019-02-18T08:37:07.659Z,11.44
2019-02-18T08:39:01.299Z,11.74
2019-02-18T08:40:01.297Z,11.84
2019-02-18T08:41:54.023Z,12.19
2019-02-18T08:42:53.954Z,12.48
2019-02-18T08:44:46.735Z,12.96
2019-02-18T08:45:46.684Z,13.25
2019-02-18T08:47:39.609Z,13.87
2019-02-18T08:48:39.458Z,14.21
2019-02-18T08:50:32.665Z,14.56
2019-02-18T08:51:32.138Z,14.72
2019-02-18T08:53:25.091Z,15.22
2019-02-18T08:54:24.851Z,15.59
2019-02-18T08:56:17.653Z,15.74
2019-02-18T08:57:17.603Z,15.92
2019-02-18T08:59:11.115Z,16.26
2019-02-18T09:00:10.307Z,16.41
2019-02-18T09:02:03.139Z,16.99
2019-02-18T09:03:03.063Z,17.07
2019-02-18T09:04:55.851Z,17.35
2019-02-18T09:05:55.814Z,17.46
2019-02-18T09:07:48.592Z,17.58
2019-02-18T09:08:48.520Z,17.76
2019-02-18T09:10:41.328Z,17.71
2019-02-18T09:11:41.244Z,17.74
2019-02-18T09:13:34.051Z,18.05
2019-02-18T09:14:33.998Z,18.17
2019-02-18T09:16:26.760Z,18.64
2019-02-18T09:17:26.691Z,18.74
2019-02-18T09:19:19.563Z,18.90
2019-02-18T09:20:19.441Z,18.97
2019-02-18T09:22:12.213Z,18.96
2019-02-18T09:23:12.194Z,18.91
2019-02-18T09:25:05.072Z,18.26
2019-02-18T09:26:05.010Z,18.25
2019-02-18T09:27:57.920Z,18.65
2019-02-18T09:28:57.774Z,18.93
2019-02-18T09:30:50.557Z,19.27
2019-02-18T09:31:50.480Z,19.31
2019-02-18T09:33:43.335Z,19.24
2019-02-18T09:34:43.285Z,18.94
2019-02-18T09:36:36.028Z,19.46
2019-02-18T09:37:35.957Z,19.70
2019-02-18T09:39:31.432Z,20.30
2019-02-18T09:40:28.700Z,20.33
2019-02-18T09:42:21.506Z,20.83
2019-02-18T09:43:21.445Z,21.03
2019-02-18T09:45:14.840Z,21.31
2019-02-18T09:46:14.181Z,21.38
2019-02-18T09:48:06.182Z,21.13
2019-02-18T09:49:05.925Z,21.09
2019-02-18T09:51:00.193Z,21.28
2019-02-18T09:51:58.655Z,21.16
2019-02-18T09:53:51.432Z,21.08
2019-02-18T09:54:51.377Z,20.73
2019-02-18T09:56:44.173Z,20.79
2019-02-18T09:57:44.112Z,20.94
2019-02-18T09:59:36.893Z,20.88
2019-02-18T10:00:36.834Z,21.24
2019-02-18T10:02:29.647Z,21.55
2019-02-18T10:03:31.875Z,21.61
2019-02-18T10:05:22.386Z,21.83
2019-02-18T10:06:22.330Z,21.93
2019-02-18T10:08:15.163Z,21.61
2019-02-18T10:09:15.082Z,21.71
2019-02-18T10:11:07.865Z,21.85
2019-02-18T10:12:17.858Z,22.11
2019-02-18T10:14:00.616Z,22.33
2019-02-18T10:15:00.543Z,22.36
2019-02-18T10:16:53.342Z,22.17
2019-02-18T10:17:53.279Z,22.23
2019-02-18T10:19:46.085Z,21.98
2019-02-18T10:20:46.030Z,21.93
2019-02-18T10:22:38.834Z,22.02
2019-02-18T10:23:38.766Z,22.20
2019-02-18T10:25:31.547Z,21.08
2019-02-18T10:26:31.491Z,20.97
2019-02-18T10:28:24.336Z,20.64
2019-02-18T10:29:24.345Z,20.93
2019-02-18T10:31:17.063Z,21.19
2019-02-18T10:32:17.030Z,21.36
2019-02-18T10:34:09.793Z,21.67
2019-02-18T10:35:09.726Z,21.94
2019-02-18T10:37:02.565Z,22.35
2019-02-18T10:38:02.478Z,22.38
2019-02-18T10:39:55.276Z,22.72
2019-02-18T10:41:05.974Z,22.54
2019-02-18T10:42:48.038Z,22.52
2019-02-18T10:43:47.970Z,22.30
2019-02-18T10:45:40.779Z,21.66
2019-02-18T10:46:40.830Z,21.71
2019-02-18T10:48:33.543Z,21.81
2019-02-18T10:49:33.480Z,22.01
2019-02-18T10:51:26.323Z,22.54
2019-02-18T10:52:26.263Z,22.79
2019-02-18T10:54:19.168Z,22.54
2019-02-18T10:55:19.061Z,22.63
2019-02-18T10:57:11.860Z,22.91
2019-02-18T10:58:11.786Z,22.59
2019-02-18T11:00:03.710Z,22.02
2019-02-18T11:01:03.624Z,22.06
2019-02-18T11:02:56.457Z,21.70
2019-02-18T11:03:56.352Z,21.86
2019-02-18T11:05:49.154Z,22.17
2019-02-18T11:06:49.136Z,22.38
2019-02-18T11:08:41.926Z,21.36
2019-02-18T11:09:41.845Z,21.12
2019-02-18T11:11:34.683Z,20.53
2019-02-18T11:12:34.619Z,19.72
2019-02-18T11:14:27.448Z,18.72
2019-02-18T11:15:27.352Z,18.17
2019-02-18T11:17:19.181Z,17.20
2019-02-18T11:18:19.101Z,16.95
2019-02-18T11:20:12.094Z,16.50
2019-02-18T11:21:12.005Z,16.48
2019-02-18T11:23:04.810Z,16.26
2019-02-18T11:24:04.730Z,16.25
2019-02-18T11:25:57.618Z,16.07
2019-02-18T11:26:57.552Z,15.85
2019-02-18T11:28:50.383Z,15.73
2019-02-18T11:29:50.309Z,15.66
2019-02-18T11:31:43.108Z,15.58
2019-02-18T11:32:43.023Z,15.49
2019-02-18T11:34:35.815Z,15.27
2019-02-18T11:35:35.738Z,15.22
2019-02-18T11:37:28.535Z,15.23
2019-02-18T11:38:28.458Z,15.12
2019-02-18T11:40:21.272Z,15.11
2019-02-18T11:41:27.343Z,15.12
2019-02-18T11:43:12.962Z,14.85
2019-02-18T11:44:12.885Z,14.86
2019-02-18T11:46:05.656Z,14.83
2019-02-18T11:47:05.593Z,14.82
2019-02-18T11:48:58.390Z,14.83
2019-02-18T11:49:58.319Z,14.79
2019-02-18T11:51:50.189Z,14.72
2019-02-18T11:52:50.038Z,14.66
2019-02-18T11:54:42.813Z,14.72
2019-02-18T11:55:42.747Z,14.74
2019-02-18T11:57:35.532Z,14.71
2019-02-18T11:58:35.466Z,14.69
2019-02-18T12:00:28.248Z,14.60
2019-02-18T12:01:28.503Z,14.72
2019-02-18T12:03:20.968Z,14.71
2019-02-18T12:04:20.888Z,14.75
2019-02-18T12:06:13.676Z,14.78
2019-02-18T12:07:13.607Z,14.75
2019-02-18T12:09:06.387Z,14.69
2019-02-18T12:10:06.324Z,14.72
2019-02-18T12:11:59.104Z,14.87
2019-02-18T12:12:59.070Z,14.82
2019-02-18T12:14:50.926Z,14.90
2019-02-18T12:15:50.840Z,14.86
2019-02-18T12:17:42.623Z,14.97
2019-02-18T12:18:42.609Z,15.01
2019-02-18T12:20:35.361Z,15.19
2019-02-18T12:21:35.317Z,15.23
2019-02-18T12:23:28.084Z,15.01
2019-02-18T12:24:28.082Z,15.04
2019-02-18T12:26:20.782Z,14.86
2019-02-18T12:27:20.703Z,14.82
2019-02-18T12:29:13.489Z,14.80
2019-02-18T12:30:13.424Z,14.85
2019-02-18T12:32:05.340Z,14.94
2019-02-18T12:33:05.309Z,15.12
2019-02-18T12:34:58.073Z,15.05
2019-02-18T12:35:57.983Z,15.05
2019-02-18T12:37:55.265Z,15.07
2019-02-18T12:38:50.683Z,15.13
2019-02-18T12:40:43.505Z,15.16
2019-02-18T12:41:48.762Z,15.05
2019-02-18T12:43:35.225Z,15.09
2019-02-18T12:44:35.146Z,15.05
2019-02-18T12:46:27.933Z,15.15
2019-02-18T12:47:27.837Z,15.20
2019-02-18T12:49:20.654Z,15.33
2019-02-18T12:50:20.564Z,15.41
2019-02-18T12:52:12.353Z,15.51
2019-02-18T12:53:12.311Z,15.60
2019-02-18T12:55:05.131Z,15.56
2019-02-18T12:56:04.980Z,15.60
2019-02-18T12:57:56.834Z,15.46
2019-02-18T12:58:56.745Z,15.49
2019-02-18T13:00:49.557Z,15.41
2019-02-18T13:01:49.469Z,15.35
2019-02-18T13:03:41.431Z,15.41
2019-02-18T13:04:41.343Z,15.40
2019-02-18T13:06:34.162Z,15.33
2019-02-18T13:07:34.062Z,15.38
2019-02-18T13:09:26.111Z,15.41
2019-02-18T13:10:34.604Z,15.41
2019-02-18T13:12:18.715Z,15.62
2019-02-18T13:13:18.648Z,15.55
2019-02-18T13:15:11.476Z,15.40
2019-02-18T13:16:11.358Z,15.49
2019-02-18T13:19:03.278Z,15.58
2019-02-18T13:20:55.133Z,15.56
2019-02-18T13:21:55.056Z,15.56
2019-02-18T13:23:47.852Z,15.58
2019-02-18T13:24:47.774Z,15.59
2019-02-18T13:26:39.542Z,15.64
2019-02-18T13:27:39.478Z,15.67
2019-02-18T13:29:32.285Z,15.68
2019-02-18T13:30:32.220Z,15.55
2019-02-18T13:32:24.997Z,15.56
2019-02-18T13:33:24.930Z,15.60
2019-02-18T13:35:17.742Z,15.67
2019-02-18T13:36:17.634Z,15.67
2019-02-18T13:38:09.417Z,15.58
2019-02-18T13:39:09.348Z,15.73
2019-02-18T13:41:02.131Z,15.77
2019-02-18T13:42:07.422Z,15.77
2019-02-18T13:43:54.841Z,15.76
2019-02-18T13:44:54.770Z,15.64
2019-02-18T13:46:46.545Z,15.62
2019-02-18T13:47:46.479Z,15.70
2019-02-18T13:49:38.396Z,15.59
2019-02-18T13:50:38.308Z,15.59
2019-02-18T13:52:31.074Z,15.60
2019-02-18T13:53:31.004Z,15.67
2019-02-18T13:55:23.784Z,15.71
2019-02-18T13:56:23.701Z,15.74
2019-02-18T13:58:16.504Z,15.71
2019-02-18T13:59:16.416Z,15.67
2019-02-18T14:01:09.211Z,15.67
2019-02-18T14:02:09.140Z,15.62
2019-02-18T14:04:01.919Z,15.76
2019-02-18T14:05:01.854Z,15.74
2019-02-18T14:06:54.645Z,15.73
2019-02-18T14:07:54.585Z,15.78
2019-02-18T14:09:46.373Z,15.73
2019-02-18T14:10:46.264Z,15.66
2019-02-18T14:12:39.060Z,15.56
2019-02-18T14:13:39.004Z,15.56
2019-02-18T14:15:30.780Z,15.43
2019-02-18T14:16:30.696Z,15.51
2019-02-18T14:18:22.536Z,15.59
2019-02-18T14:19:22.475Z,15.59
2019-02-18T14:21:14.432Z,15.64
2019-02-18T14:22:14.347Z,15.68
2019-02-18T14:24:07.109Z,15.62
2019-02-18T14:25:07.063Z,15.55
2019-02-18T14:26:58.952Z,15.60
2019-02-18T14:27:58.880Z,15.56
2019-02-18T14:29:50.695Z,15.64
2019-02-18T14:30:50.599Z,15.59
2019-02-18T14:32:42.382Z,15.60
2019-02-18T14:33:42.324Z,15.52
2019-02-18T14:35:34.127Z,15.51
2019-02-18T14:36:34.052Z,15.59
2019-02-18T14:38:26.832Z,15.56
2019-02-18T14:39:26.769Z,15.60
2019-02-18T14:41:19.573Z,15.64
2019-02-18T14:42:24.478Z,15.58
2019-02-18T14:44:12.271Z,15.62
2019-02-18T14:45:12.257Z,15.53
2019-02-18T14:47:04.000Z,15.62
2019-02-18T14:48:03.919Z,15.44
2019-02-18T14:49:56.696Z,15.49
2019-02-18T14:50:57.147Z,15.49
2019-02-18T14:52:48.515Z,15.43
2019-02-18T14:53:48.456Z,15.51
2019-02-18T14:55:40.219Z,15.43
2019-02-18T14:56:41.049Z,15.38
2019-02-18T14:58:33.009Z,15.38
2019-02-18T14:59:32.867Z,15.41
2019-02-18T15:01:25.656Z,15.33
2019-02-18T15:02:25.586Z,15.20
2019-02-18T15:04:18.350Z,15.22
2019-02-18T15:05:18.286Z,15.15
2019-02-18T15:07:11.064Z,15.03
2019-02-18T15:08:11.024Z,15.04
2019-02-18T15:10:03.757Z,15.03
2019-02-18T15:11:03.680Z,15.03
2019-02-18T15:12:56.477Z,14.97
2019-02-18T15:13:56.398Z,15.00
2019-02-18T15:15:49.199Z,15.01
2019-02-18T15:16:49.117Z,15.03
2019-02-18T15:18:41.893Z,14.98
2019-02-18T15:19:41.808Z,15.01
2019-02-18T15:21:33.639Z,15.07
2019-02-18T15:22:33.501Z,15.09
2019-02-18T15:24:26.281Z,15.03
2019-02-18T15:25:26.205Z,15.04
2019-02-18T15:27:19.008Z,14.83
2019-02-18T15:28:18.930Z,14.78
2019-02-18T15:30:10.718Z,14.90
2019-02-18T15:31:10.621Z,14.74
2019-02-18T15:33:03.440Z,14.66
2019-02-18T15:34:03.330Z,14.61
2019-02-18T15:35:56.180Z,14.57
2019-02-18T15:36:56.191Z,14.48
2019-02-18T15:38:47.862Z,14.45
2019-02-18T15:39:47.799Z,14.48
2019-02-18T15:41:39.678Z,14.46
2019-02-18T15:42:42.118Z,14.46
2019-02-18T15:44:31.245Z,14.34
2019-02-18T15:45:31.183Z,14.31
2019-02-18T15:47:22.997Z,14.20
2019-02-18T15:48:22.916Z,14.21
2019-02-18T15:50:15.697Z,14.23
2019-02-18T15:51:15.633Z,14.24
2019-02-18T15:53:07.483Z,14.21
2019-02-18T15:54:07.414Z,14.09
2019-02-18T15:55:59.232Z,14.09
2019-02-18T15:56:59.132Z,14.06
2019-02-18T15:58:51.103Z,13.91
2019-02-18T15:59:50.933Z,13.99
2019-02-18T16:01:43.692Z,13.93
2019-02-18T16:02:43.609Z,13.93
2019-02-18T16:04:36.426Z,13.87
2019-02-18T16:05:36.381Z,13.72
2019-02-18T16:07:28.508Z,13.69
2019-02-18T16:08:28.390Z,13.62
2019-02-18T16:10:21.181Z,13.72
2019-02-18T16:11:21.106Z,13.69
2019-02-18T16:13:13.007Z,13.65
2019-02-18T16:14:12.940Z,13.55
2019-02-18T16:16:04.706Z,13.62
2019-02-18T16:17:04.632Z,13.55
2019-02-18T16:18:57.404Z,13.62
2019-02-18T16:19:57.338Z,13.54
2019-02-18T16:21:49.729Z,13.29
2019-02-18T16:22:49.204Z,13.36
2019-02-18T16:24:40.967Z,13.22
2019-02-18T16:25:40.893Z,13.21
2019-02-18T16:27:32.661Z,12.96
2019-02-18T16:28:32.615Z,12.92
2019-02-18T16:30:24.347Z,12.81
2019-02-18T16:31:24.256Z,12.69
2019-02-18T16:33:17.048Z,12.62
2019-02-18T16:34:17.032Z,12.51
2019-02-18T16:36:10.090Z,12.37
2019-02-18T16:37:08.657Z,12.29
2019-02-18T16:39:01.444Z,12.25
2019-02-18T16:40:01.361Z,12.23
2019-02-18T16:41:54.256Z,12.25
2019-02-18T16:42:59.095Z,12.22
2019-02-18T16:44:46.855Z,12.13
2019-02-18T16:45:46.780Z,12.12
2019-02-18T16:47:38.560Z,12.05
2019-02-18T16:48:38.488Z,11.90
2019-02-18T16:50:30.247Z,11.88
2019-02-18T16:51:30.171Z,11.75
2019-02-18T16:53:21.956Z,11.62
2019-02-18T16:54:21.873Z,11.56
2019-02-18T16:56:13.893Z,11.46
2019-02-18T16:57:13.878Z,11.42
2019-02-18T16:59:05.578Z,11.39
2019-02-18T17:00:05.508Z,11.42
2019-02-18T17:01:57.316Z,11.36
2019-02-18T17:02:57.229Z,11.42
2019-02-18T17:04:49.006Z,11.46
2019-02-18T17:05:48.980Z,11.45
2019-02-18T17:07:40.717Z,11.46
2019-02-18T17:08:40.651Z,11.44
2019-02-18T17:10:32.523Z,11.44
2019-02-18T17:11:32.394Z,11.44
2019-02-18T17:13:24.226Z,11.39
2019-02-18T17:14:24.155Z,11.41
2019-02-18T17:16:16.103Z,11.38
2019-02-18T17:17:16.056Z,11.35
2019-02-18T17:19:09.377Z,11.31
2019-02-18T17:20:09.259Z,11.23
2019-02-18T17:22:01.068Z,11.13
2019-02-18T17:23:01.079Z,11.13
2019-02-18T17:24:52.755Z,11.02
2019-02-18T17:25:52.694Z,10.93
2019-02-18T17:27:44.481Z,10.81
2019-02-18T17:28:44.432Z,10.84
2019-02-18T17:30:36.201Z,10.84
2019-02-18T17:31:36.138Z,10.72
2019-02-18T17:33:27.927Z,10.69
2019-02-18T17:34:27.839Z,10.55
2019-02-18T17:36:19.651Z,10.65
2019-02-18T17:37:19.569Z,10.58
2019-02-18T17:39:11.426Z,10.49
2019-02-18T17:40:11.345Z,10.51
2019-02-18T17:42:03.182Z,10.39
2019-02-18T17:43:03.115Z,10.31
2019-02-18T17:44:54.868Z,10.13
2019-02-18T17:45:54.800Z,10.16
2019-02-18T17:47:46.619Z,10.17
2019-02-18T17:48:46.540Z,10.17
2019-02-18T17:50:38.313Z,10.25
2019-02-18T17:51:38.196Z,10.29
2019-02-18T17:53:29.989Z,10.35
2019-02-18T17:54:29.890Z,10.35
2019-02-18T17:56:21.647Z,10.35
2019-02-18T17:57:21.722Z,10.34
2019-02-18T17:59:13.455Z,10.47
2019-02-18T18:00:13.363Z,10.46
2019-02-18T18:02:05.085Z,10.46
2019-02-18T18:03:04.986Z,10.43
2019-02-18T18:04:56.763Z,10.43
2019-02-18T18:05:56.704Z,10.44
2019-02-18T18:07:48.503Z,10.51
2019-02-18T18:08:48.392Z,10.49
2019-02-18T18:10:40.164Z,10.58
2019-02-18T18:11:40.210Z,10.54
2019-02-18T18:13:31.990Z,10.57
2019-02-18T18:14:31.923Z,10.68
2019-02-18T18:16:23.735Z,10.62
2019-02-18T18:17:23.664Z,10.63
2019-02-18T18:19:15.438Z,10.65
2019-02-18T18:20:15.396Z,10.57
2019-02-18T18:22:08.129Z,10.62
2019-02-18T18:23:08.124Z,10.43
2019-02-18T18:24:59.864Z,10.54
2019-02-18T18:25:59.792Z,10.58
2019-02-18T18:27:51.585Z,10.43
2019-02-18T18:28:51.499Z,10.39
2019-02-18T18:30:43.362Z,10.49
2019-02-18T18:31:43.188Z,10.39
2019-02-18T18:33:35.052Z,10.34
2019-02-18T18:34:34.925Z,10.32
2019-02-18T18:36:26.741Z,10.34
2019-02-18T18:37:26.680Z,10.34
2019-02-18T18:39:19.653Z,10.31
2019-02-18T18:40:19.556Z,10.26
2019-02-18T18:42:12.365Z,10.38
2019-02-18T18:43:12.270Z,10.31
2019-02-18T18:45:04.040Z,10.35
2019-02-18T18:46:03.963Z,10.34
2019-02-18T18:47:56.751Z,10.24